sensor_id;sensor_type;location;lat;lon;timestamp;pressure;altitude;pressure_sealevel;temperature;humidity
8286;BME280;4181;43.416;24.598;2023-01-15T00:01:33;100516.19;;;7.95;100.00
8286;BME280;4181;43.416;24.598;2023-01-15T00:03:59;100516.03;;;7.90;100.00
8286;BME280;4181;43.416;24.598;2023-01-15T00:06:26;100520.84;;;7.88;100.00
8286;BME280;4181;43.416;24.598;2023-01-15T00:08:52;100517.50;;;7.86;100.00
8286;BME280;4181;43.416;24.598;2023-01-15T00:11:18;100522.38;;;7.84;100.00
8286;BME280;4181;43.416;24.598;2023-01-15T00:13:44;100511.66;;;7.89;100.00
8286;BME280;4181;43.416;24.598;2023-01-15T00:16:17;100514.06;;;7.97;100.00
8286;BME280;4181;43.416;24.598;2023-01-15T00:18:47;100522.38;;;8.02;100.00
8286;BME280;4181;43.416;24.598;2023-01-15T00:21:13;100535.44;;;7.94;100.00
8286;BME280;4181;43.416;24.598;2023-01-15T00:23:39;100529.16;;;7.93;100.00
8286;BME280;4181;43.416;24.598;2023-01-15T00:26:27;100523.34;;;7.90;100.00
8286;BME280;4181;43.416;24.598;2023-01-15T00:29:12;100521.91;;;7.87;100.00
8286;BME280;4181;43.416;24.598;2023-01-15T00:31:37;100512.25;;;7.91;100.00
8286;BME280;4181;43.416;24.598;2023-01-15T00:34:03;100508.19;;;8.00;100.00
8286;BME280;4181;43.416;24.598;2023-01-15T00:36:29;100511.13;;;7.99;100.00
8286;BME280;4181;43.416;24.598;2023-01-15T00:38:54;100521.75;;;8.00;100.00
8286;BME280;4181;43.416;24.598;2023-01-15T00:41:20;100518.06;;;7.95;100.00
8286;BME280;4181;43.416;24.598;2023-01-15T00:43:45;100524.78;;;7.92;100.00
8286;BME280;4181;43.416;24.598;2023-01-15T00:46:11;100512.31;;;7.85;100.00
8286;BME280;4181;43.416;24.598;2023-01-15T00:48:36;100503.78;;;7.81;100.00
8286;BME280;4181;43.416;24.598;2023-01-15T00:51:03;100508.06;;;7.70;100.00
8286;BME280;4181;43.416;24.598;2023-01-15T00:53:29;100509.94;;;7.70;100.00
8286;BME280;4181;43.416;24.598;2023-01-15T00:55:54;100501.72;;;7.58;100.00
8286;BME280;4181;43.416;24.598;2023-01-15T00:58:20;100505.88;;;7.61;100.00
8286;BME280;4181;43.416;24.598;2023-01-15T01:00:45;100494.34;;;7.65;100.00
8286;BME280;4181;43.416;24.598;2023-01-15T01:03:11;100508.94;;;7.64;100.00
8286;BME280;4181;43.416;24.598;2023-01-15T01:05:36;100501.41;;;7.66;100.00
8286;BME280;4181;43.416;24.598;2023-01-15T01:08:02;100515.72;;;7.55;100.00
8286;BME280;4181;43.416;24.598;2023-01-15T01:10:27;100510.69;;;7.59;100.00
8286;BME280;4181;43.416;24.598;2023-01-15T01:12:53;100517.91;;;7.47;100.00
8286;BME280;4181;43.416;24.598;2023-01-15T01:15:20;100512.13;;;7.37;100.00
8286;BME280;4181;43.416;24.598;2023-01-15T01:17:47;100506.19;;;7.46;100.00
8286;BME280;4181;43.416;24.598;2023-01-15T01:20:15;100494.31;;;7.47;100.00
8286;BME280;4181;43.416;24.598;2023-01-15T01:22:42;100494.78;;;7.38;100.00
8286;BME280;4181;43.416;24.598;2023-01-15T01:25:08;100494.53;;;7.46;100.00
8286;BME280;4181;43.416;24.598;2023-01-15T01:27:34;100501.09;;;7.56;100.00
8286;BME280;4181;43.416;24.598;2023-01-15T01:29:59;100497.56;;;7.56;100.00
8286;BME280;4181;43.416;24.598;2023-01-15T01:32:24;100507.81;;;7.54;100.00
8286;BME280;4181;43.416;24.598;2023-01-15T01:34:50;100502.69;;;7.39;100.00
8286;BME280;4181;43.416;24.598;2023-01-15T01:37:16;100501.22;;;7.43;100.00
8286;BME280;4181;43.416;24.598;2023-01-15T01:39:42;100492.06;;;7.38;100.00
8286;BME280;4181;43.416;24.598;2023-01-15T01:42:11;100489.03;;;7.52;100.00
8286;BME280;4181;43.416;24.598;2023-01-15T01:47:14;100487.28;;;7.58;100.00
8286;BME280;4181;43.416;24.598;2023-01-15T01:49:45;100489.19;;;7.57;100.00
8286;BME280;4181;43.416;24.598;2023-01-15T01:52:29;100490.78;;;7.65;100.00
8286;BME280;4181;43.416;24.598;2023-01-15T01:54:57;100484.81;;;7.56;100.00
8286;BME280;4181;43.416;24.598;2023-01-15T01:57:24;100495.59;;;7.63;100.00
8286;BME280;4181;43.416;24.598;2023-01-15T01:59:49;100494.88;;;7.74;100.00
8286;BME280;4181;43.416;24.598;2023-01-15T02:02:16;100486.91;;;7.79;100.00
8286;BME280;4181;43.416;24.598;2023-01-15T02:04:44;100489.78;;;7.84;100.00
8286;BME280;4181;43.416;24.598;2023-01-15T02:07:10;100501.34;;;7.73;100.00
8286;BME280;4181;43.416;24.598;2023-01-15T02:09:36;100495.03;;;7.79;100.00
8286;BME280;4181;43.416;24.598;2023-01-15T02:14:48;100485.97;;;7.85;100.00
8286;BME280;4181;43.416;24.598;2023-01-15T02:17:24;100496.69;;;7.80;100.00
8286;BME280;4181;43.416;24.598;2023-01-15T02:20:29;100494.38;;;7.84;100.00
8286;BME280;4181;43.416;24.598;2023-01-15T02:28:44;100504.09;;;7.91;100.00
8286;BME280;4181;43.416;24.598;2023-01-15T02:31:16;100504.34;;;7.65;100.00
8286;BME280;4181;43.416;24.598;2023-01-15T02:33:55;100508.22;;;7.57;100.00
8286;BME280;4181;43.416;24.598;2023-01-15T02:36:25;100501.16;;;7.50;100.00
8286;BME280;4181;43.416;24.598;2023-01-15T02:38:55;100479.09;;;7.40;100.00
8286;BME280;4181;43.416;24.598;2023-01-15T02:41:27;100472.91;;;7.57;100.00
8286;BME280;4181;43.416;24.598;2023-01-15T02:43:56;100478.19;;;7.52;100.00
8286;BME280;4181;43.416;24.598;2023-01-15T02:46:26;100476.88;;;7.55;100.00
8286;BME280;4181;43.416;24.598;2023-01-15T02:48:54;100473.94;;;7.56;100.00
8286;BME280;4181;43.416;24.598;2023-01-15T02:51:24;100474.78;;;7.57;100.00
8286;BME280;4181;43.416;24.598;2023-01-15T02:53:52;100468.44;;;7.63;100.00
8286;BME280;4181;43.416;24.598;2023-01-15T02:56:22;100466.97;;;7.67;100.00
8286;BME280;4181;43.416;24.598;2023-01-15T02:58:53;100469.22;;;7.70;100.00
8286;BME280;4181;43.416;24.598;2023-01-15T03:01:28;100484.09;;;7.67;100.00
8286;BME280;4181;43.416;24.598;2023-01-15T03:06:37;100487.03;;;7.66;100.00
8286;BME280;4181;43.416;24.598;2023-01-15T03:09:06;100489.91;;;7.71;100.00
8286;BME280;4181;43.416;24.598;2023-01-15T03:11:36;100488.69;;;7.85;100.00
8286;BME280;4181;43.416;24.598;2023-01-15T03:14:28;100493.97;;;7.80;100.00
8286;BME280;4181;43.416;24.598;2023-01-15T03:16:54;100503.19;;;7.79;100.00
8286;BME280;4181;43.416;24.598;2023-01-15T03:19:28;100500.03;;;7.82;100.00
8286;BME280;4181;43.416;24.598;2023-01-15T03:24:27;100491.13;;;7.93;100.00
8286;BME280;4181;43.416;24.598;2023-01-15T03:26:55;100498.94;;;7.83;100.00
8286;BME280;4181;43.416;24.598;2023-01-15T03:29:22;100490.56;;;7.85;100.00
8286;BME280;4181;43.416;24.598;2023-01-15T03:31:49;100487.47;;;7.81;100.00
8286;BME280;4181;43.416;24.598;2023-01-15T03:34:15;100479.88;;;7.90;100.00
8286;BME280;4181;43.416;24.598;2023-01-15T03:36:40;100484.03;;;7.92;100.00
8286;BME280;4181;43.416;24.598;2023-01-15T03:39:06;100479.44;;;7.93;100.00
8286;BME280;4181;43.416;24.598;2023-01-15T03:44:23;100477.16;;;7.90;100.00
8286;BME280;4181;43.416;24.598;2023-01-15T03:52:27;100497.22;;;7.89;100.00
8286;BME280;4181;43.416;24.598;2023-01-15T03:57:42;100491.25;;;7.80;100.00
8286;BME280;4181;43.416;24.598;2023-01-15T04:00:15;100486.59;;;7.87;100.00
8286;BME280;4181;43.416;24.598;2023-01-15T04:02:44;100485.13;;;7.85;100.00
8286;BME280;4181;43.416;24.598;2023-01-15T04:05:11;100488.25;;;7.88;100.00
8286;BME280;4181;43.416;24.598;2023-01-15T04:07:38;100497.84;;;7.91;100.00
8286;BME280;4181;43.416;24.598;2023-01-15T04:10:07;100492.34;;;7.97;100.00
8286;BME280;4181;43.416;24.598;2023-01-15T04:12:32;100495.50;;;7.94;100.00
8286;BME280;4181;43.416;24.598;2023-01-15T04:14:58;100504.03;;;7.98;100.00
8286;BME280;4181;43.416;24.598;2023-01-15T04:17:24;100502.13;;;7.98;100.00
8286;BME280;4181;43.416;24.598;2023-01-15T04:19:49;100508.16;;;7.82;100.00
8286;BME280;4181;43.416;24.598;2023-01-15T04:22:15;100502.28;;;7.85;100.00
8286;BME280;4181;43.416;24.598;2023-01-15T04:24:41;100501.38;;;7.91;100.00
8286;BME280;4181;43.416;24.598;2023-01-15T04:27:06;100501.81;;;7.88;100.00
8286;BME280;4181;43.416;24.598;2023-01-15T04:29:32;100498.06;;;7.71;100.00
8286;BME280;4181;43.416;24.598;2023-01-15T04:31:57;100491.03;;;7.82;100.00
8286;BME280;4181;43.416;24.598;2023-01-15T04:34:27;100494.13;;;7.85;100.00
8286;BME280;4181;43.416;24.598;2023-01-15T04:36:53;100491.34;;;7.92;100.00
8286;BME280;4181;43.416;24.598;2023-01-15T04:39:19;100489.47;;;7.92;100.00
8286;BME280;4181;43.416;24.598;2023-01-15T04:41:45;100498.88;;;7.90;100.00
8286;BME280;4181;43.416;24.598;2023-01-15T04:44:29;100506.00;;;7.91;100.00
8286;BME280;4181;43.416;24.598;2023-01-15T04:46:56;100503.66;;;7.94;100.00
8286;BME280;4181;43.416;24.598;2023-01-15T04:49:24;100499.03;;;7.95;100.00
8286;BME280;4181;43.416;24.598;2023-01-15T04:51:49;100502.81;;;7.94;100.00
8286;BME280;4181;43.416;24.598;2023-01-15T04:54:15;100504.31;;;7.90;100.00
8286;BME280;4181;43.416;24.598;2023-01-15T04:56:43;100503.44;;;7.96;100.00
8286;BME280;4181;43.416;24.598;2023-01-15T04:59:10;100500.78;;;7.89;100.00
8286;BME280;4181;43.416;24.598;2023-01-15T05:01:36;100501.97;;;7.93;100.00
8286;BME280;4181;43.416;24.598;2023-01-15T05:04:03;100498.81;;;7.96;100.00
8286;BME280;4181;43.416;24.598;2023-01-15T05:06:29;100499.25;;;7.93;100.00
8286;BME280;4181;43.416;24.598;2023-01-15T05:09:00;100505.31;;;7.95;100.00
8286;BME280;4181;43.416;24.598;2023-01-15T05:11:27;100506.81;;;7.91;100.00
8286;BME280;4181;43.416;24.598;2023-01-15T05:13:53;100506.75;;;7.98;100.00
8286;BME280;4181;43.416;24.598;2023-01-15T05:16:24;100502.28;;;8.03;100.00
8286;BME280;4181;43.416;24.598;2023-01-15T05:18:52;100507.72;;;8.03;100.00
8286;BME280;4181;43.416;24.598;2023-01-15T05:21:22;100504.25;;;7.96;100.00
8286;BME280;4181;43.416;24.598;2023-01-15T05:23:50;100507.88;;;7.90;100.00
8286;BME280;4181;43.416;24.598;2023-01-15T05:26:16;100508.78;;;7.84;100.00
8286;BME280;4181;43.416;24.598;2023-01-15T05:28:42;100505.59;;;7.87;100.00
8286;BME280;4181;43.416;24.598;2023-01-15T05:31:12;100504.47;;;7.95;100.00
8286;BME280;4181;43.416;24.598;2023-01-15T05:33:38;100505.53;;;7.76;100.00
8286;BME280;4181;43.416;24.598;2023-01-15T05:36:07;100514.19;;;7.66;100.00
8286;BME280;4181;43.416;24.598;2023-01-15T05:38:33;100511.63;;;7.71;100.00
8286;BME280;4181;43.416;24.598;2023-01-15T05:41:02;100502.56;;;7.77;100.00
8286;BME280;4181;43.416;24.598;2023-01-15T05:43:27;100508.59;;;7.61;100.00
8286;BME280;4181;43.416;24.598;2023-01-15T05:45:53;100503.34;;;7.59;100.00
8286;BME280;4181;43.416;24.598;2023-01-15T05:48:18;100494.25;;;7.54;100.00
8286;BME280;4181;43.416;24.598;2023-01-15T05:50:44;100488.19;;;7.52;100.00
8286;BME280;4181;43.416;24.598;2023-01-15T05:53:09;100488.13;;;7.58;100.00
8286;BME280;4181;43.416;24.598;2023-01-15T05:55:35;100490.16;;;7.63;100.00
8286;BME280;4181;43.416;24.598;2023-01-15T05:58:00;100488.25;;;7.88;100.00
8286;BME280;4181;43.416;24.598;2023-01-15T06:00:25;100494.19;;;7.79;100.00
8286;BME280;4181;43.416;24.598;2023-01-15T06:02:51;100501.50;;;7.78;100.00
8286;BME280;4181;43.416;24.598;2023-01-15T06:05:17;100498.72;;;7.85;100.00
8286;BME280;4181;43.416;24.598;2023-01-15T06:07:48;100501.06;;;7.81;100.00
8286;BME280;4181;43.416;24.598;2023-01-15T06:10:17;100500.31;;;7.74;100.00
8286;BME280;4181;43.416;24.598;2023-01-15T06:12:43;100504.69;;;7.75;100.00
8286;BME280;4181;43.416;24.598;2023-01-15T06:15:10;100512.06;;;7.86;100.00
8286;BME280;4181;43.416;24.598;2023-01-15T06:17:35;100510.13;;;7.75;100.00
8286;BME280;4181;43.416;24.598;2023-01-15T06:20:01;100511.63;;;7.71;100.00
8286;BME280;4181;43.416;24.598;2023-01-15T06:22:26;100506.69;;;7.61;100.00
8286;BME280;4181;43.416;24.598;2023-01-15T06:24:51;100501.19;;;7.68;100.00
8286;BME280;4181;43.416;24.598;2023-01-15T06:27:17;100509.91;;;7.52;100.00
8286;BME280;4181;43.416;24.598;2023-01-15T06:29:42;100506.13;;;7.53;100.00
8286;BME280;4181;43.416;24.598;2023-01-15T06:32:08;100488.97;;;7.59;100.00
8286;BME280;4181;43.416;24.598;2023-01-15T06:34:33;100488.47;;;7.68;100.00
8286;BME280;4181;43.416;24.598;2023-01-15T06:37:00;100493.38;;;7.78;100.00
8286;BME280;4181;43.416;24.598;2023-01-15T06:39:25;100482.66;;;7.83;100.00
8286;BME280;4181;43.416;24.598;2023-01-15T06:41:53;100494.28;;;7.90;100.00
8286;BME280;4181;43.416;24.598;2023-01-15T06:44:36;100485.69;;;7.93;100.00
8286;BME280;4181;43.416;24.598;2023-01-15T06:47:20;100488.94;;;8.02;100.00
8286;BME280;4181;43.416;24.598;2023-01-15T06:49:54;100491.41;;;8.03;100.00
8286;BME280;4181;43.416;24.598;2023-01-15T06:52:20;100496.94;;;7.97;100.00
8286;BME280;4181;43.416;24.598;2023-01-15T06:54:46;100498.53;;;8.04;100.00
8286;BME280;4181;43.416;24.598;2023-01-15T06:57:12;100495.34;;;8.07;100.00
8286;BME280;4181;43.416;24.598;2023-01-15T06:59:37;100487.44;;;8.06;100.00
8286;BME280;4181;43.416;24.598;2023-01-15T07:02:03;100482.06;;;8.17;100.00
8286;BME280;4181;43.416;24.598;2023-01-15T07:04:29;100490.22;;;8.17;100.00
8286;BME280;4181;43.416;24.598;2023-01-15T07:06:55;100484.19;;;8.15;100.00
8286;BME280;4181;43.416;24.598;2023-01-15T07:09:20;100489.38;;;8.17;100.00
8286;BME280;4181;43.416;24.598;2023-01-15T07:11:46;100487.84;;;8.27;100.00
8286;BME280;4181;43.416;24.598;2023-01-15T07:14:19;100485.25;;;8.32;100.00
8286;BME280;4181;43.416;24.598;2023-01-15T07:16:44;100485.25;;;8.32;100.00
8286;BME280;4181;43.416;24.598;2023-01-15T07:19:10;100483.66;;;8.43;100.00
8286;BME280;4181;43.416;24.598;2023-01-15T07:21:36;100481.75;;;8.43;100.00
8286;BME280;4181;43.416;24.598;2023-01-15T07:24:02;100478.59;;;8.46;100.00
8286;BME280;4181;43.416;24.598;2023-01-15T07:26:28;100486.88;;;8.51;100.00
8286;BME280;4181;43.416;24.598;2023-01-15T07:28:53;100477.13;;;8.62;100.00
8286;BME280;4181;43.416;24.598;2023-01-15T07:31:19;100469.94;;;8.67;100.00
8286;BME280;4181;43.416;24.598;2023-01-15T07:33:45;100459.59;;;8.87;100.00
8286;BME280;4181;43.416;24.598;2023-01-15T07:36:10;100439.03;;;9.03;100.00
8286;BME280;4181;43.416;24.598;2023-01-15T07:38:36;100444.06;;;9.18;100.00
8286;BME280;4181;43.416;24.598;2023-01-15T07:41:01;100441.94;;;9.31;100.00
8286;BME280;4181;43.416;24.598;2023-01-15T07:43:45;100462.78;;;9.49;100.00
8286;BME280;4181;43.416;24.598;2023-01-15T07:46:29;100471.44;;;9.46;100.00
8286;BME280;4181;43.416;24.598;2023-01-15T07:49:14;100470.13;;;9.60;100.00
8286;BME280;4181;43.416;24.598;2023-01-15T07:51:58;100473.78;;;9.77;100.00
8286;BME280;4181;43.416;24.598;2023-01-15T07:54:23;100494.19;;;9.86;100.00
8286;BME280;4181;43.416;24.598;2023-01-15T07:56:50;100493.69;;;9.89;100.00
8286;BME280;4181;43.416;24.598;2023-01-15T07:59:17;100490.84;;;9.95;100.00
8286;BME280;4181;43.416;24.598;2023-01-15T08:01:42;100504.84;;;9.76;100.00
8286;BME280;4181;43.416;24.598;2023-01-15T08:04:08;100513.00;;;9.64;100.00
8286;BME280;4181;43.416;24.598;2023-01-15T08:06:37;100499.88;;;9.73;100.00
8286;BME280;4181;43.416;24.598;2023-01-15T08:09:03;100499.97;;;9.89;100.00
8286;BME280;4181;43.416;24.598;2023-01-15T08:11:29;100504.47;;;9.84;100.00
8286;BME280;4181;43.416;24.598;2023-01-15T08:14:13;100522.81;;;9.54;100.00
8286;BME280;4181;43.416;24.598;2023-01-15T08:16:58;100536.69;;;9.52;100.00
8286;BME280;4181;43.416;24.598;2023-01-15T08:19:23;100561.03;;;9.36;100.00
8286;BME280;4181;43.416;24.598;2023-01-15T08:21:50;100538.56;;;9.52;100.00
8286;BME280;4181;43.416;24.598;2023-01-15T08:24:16;100522.84;;;9.77;100.00
8286;BME280;4181;43.416;24.598;2023-01-15T08:26:41;100539.06;;;9.60;100.00
8286;BME280;4181;43.416;24.598;2023-01-15T08:29:07;100528.28;;;9.77;100.00
8286;BME280;4181;43.416;24.598;2023-01-15T08:31:32;100533.72;;;9.77;100.00
8286;BME280;4181;43.416;24.598;2023-01-15T08:33:58;100534.09;;;9.92;100.00
8286;BME280;4181;43.416;24.598;2023-01-15T08:36:23;100530.56;;;10.14;100.00
8286;BME280;4181;43.416;24.598;2023-01-15T08:38:49;100509.47;;;10.61;100.00
8286;BME280;4181;43.416;24.598;2023-01-15T08:41:15;100514.19;;;10.94;100.00
8286;BME280;4181;43.416;24.598;2023-01-15T08:43:40;100532.75;;;11.36;100.00
8286;BME280;4181;43.416;24.598;2023-01-15T08:46:06;100532.78;;;11.70;100.00
8286;BME280;4181;43.416;24.598;2023-01-15T08:48:32;100545.00;;;12.00;100.00
8286;BME280;4181;43.416;24.598;2023-01-15T08:50:58;100570.53;;;12.06;100.00
8286;BME280;4181;43.416;24.598;2023-01-15T08:53:27;100562.13;;;12.29;100.00
8286;BME280;4181;43.416;24.598;2023-01-15T08:55:53;100576.59;;;12.46;100.00
8286;BME280;4181;43.416;24.598;2023-01-15T08:58:19;100595.38;;;12.59;100.00
8286;BME280;4181;43.416;24.598;2023-01-15T09:00:44;100597.00;;;12.55;100.00
8286;BME280;4181;43.416;24.598;2023-01-15T09:03:10;100609.28;;;12.36;100.00
8286;BME280;4181;43.416;24.598;2023-01-15T09:05:36;100612.22;;;12.13;100.00
8286;BME280;4181;43.416;24.598;2023-01-15T09:08:03;100594.94;;;12.45;100.00
8286;BME280;4181;43.416;24.598;2023-01-15T09:10:29;100596.50;;;12.80;100.00
8286;BME280;4181;43.416;24.598;2023-01-15T09:12:58;100588.09;;;13.08;100.00
8286;BME280;4181;43.416;24.598;2023-01-15T09:15:23;100594.66;;;13.28;100.00
8286;BME280;4181;43.416;24.598;2023-01-15T09:17:48;100583.88;;;13.48;100.00
8286;BME280;4181;43.416;24.598;2023-01-15T09:20:14;100581.69;;;13.50;100.00
8286;BME280;4181;43.416;24.598;2023-01-15T09:22:39;100576.47;;;13.80;100.00
8286;BME280;4181;43.416;24.598;2023-01-15T09:25:06;100563.03;;;14.16;100.00
8286;BME280;4181;43.416;24.598;2023-01-15T09:27:31;100567.50;;;14.22;100.00
8286;BME280;4181;43.416;24.598;2023-01-15T09:29:58;100580.41;;;13.89;100.00
8286;BME280;4181;43.416;24.598;2023-01-15T09:32:24;100570.09;;;14.02;100.00
8286;BME280;4181;43.416;24.598;2023-01-15T09:34:49;100569.00;;;14.02;100.00
8286;BME280;4181;43.416;24.598;2023-01-15T09:37:15;100553.97;;;14.10;100.00
8286;BME280;4181;43.416;24.598;2023-01-15T09:39:41;100559.88;;;13.97;100.00
8286;BME280;4181;43.416;24.598;2023-01-15T09:42:32;100547.00;;;14.34;100.00
8286;BME280;4181;43.416;24.598;2023-01-15T09:45:27;100558.28;;;14.38;100.00
8286;BME280;4181;43.416;24.598;2023-01-15T09:55:48;100551.50;;;13.77;100.00
8286;BME280;4181;43.416;24.598;2023-01-15T09:58:19;100546.00;;;13.77;100.00
8286;BME280;4181;43.416;24.598;2023-01-15T10:00:47;100545.44;;;13.70;100.00
8286;BME280;4181;43.416;24.598;2023-01-15T10:08:46;100531.81;;;13.22;100.00
8286;BME280;4181;43.416;24.598;2023-01-15T10:14:02;100534.09;;;12.82;100.00
8286;BME280;4181;43.416;24.598;2023-01-15T10:16:31;100522.13;;;12.66;100.00
8286;BME280;4181;43.416;24.598;2023-01-15T10:19:01;100520.78;;;12.47;100.00
8286;BME280;4181;43.416;24.598;2023-01-15T10:22:04;100520.72;;;12.42;100.00
8286;BME280;4181;43.416;24.598;2023-01-15T10:24:38;100511.41;;;12.21;100.00
8286;BME280;4181;43.416;24.598;2023-01-15T10:27:17;100496.06;;;12.20;100.00
8286;BME280;4181;43.416;24.598;2023-01-15T10:29:47;100503.34;;;12.10;100.00
8286;BME280;4181;43.416;24.598;2023-01-15T10:32:44;100501.91;;;12.07;100.00
8286;BME280;4181;43.416;24.598;2023-01-15T10:43:47;100482.13;;;12.00;100.00
8286;BME280;4181;43.416;24.598;2023-01-15T10:46:27;100474.41;;;11.97;100.00
8286;BME280;4181;43.416;24.598;2023-01-15T10:49:15;100462.69;;;12.18;100.00
8286;BME280;4181;43.416;24.598;2023-01-15T10:52:05;100460.19;;;12.60;100.00
8286;BME280;4181;43.416;24.598;2023-01-15T10:54:38;100436.03;;;13.05;100.00
8286;BME280;4181;43.416;24.598;2023-01-15T10:59:50;100426.63;;;13.59;100.00
8286;BME280;4181;43.416;24.598;2023-01-15T11:04:54;100431.00;;;13.60;100.00
8286;BME280;4181;43.416;24.598;2023-01-15T11:07:46;100432.03;;;13.49;100.00
8286;BME280;4181;43.416;24.598;2023-01-15T11:10:15;100420.34;;;13.69;100.00
8286;BME280;4181;43.416;24.598;2023-01-15T11:13:19;100403.06;;;14.10;100.00
8286;BME280;4181;43.416;24.598;2023-01-15T11:16:03;100391.41;;;14.45;100.00
8286;BME280;4181;43.416;24.598;2023-01-15T11:18:47;100384.28;;;14.59;100.00
8286;BME280;4181;43.416;24.598;2023-01-15T11:21:32;100394.19;;;14.60;100.00
8286;BME280;4181;43.416;24.598;2023-01-15T11:23:58;100395.53;;;14.57;100.00
8286;BME280;4181;43.416;24.598;2023-01-15T11:26:29;100396.88;;;14.45;100.00
8286;BME280;4181;43.416;24.598;2023-01-15T11:28:56;100405.66;;;14.37;100.00
8286;BME280;4181;43.416;24.598;2023-01-15T11:31:36;100408.53;;;14.10;100.00
8286;BME280;4181;43.416;24.598;2023-01-15T11:34:06;100418.38;;;13.59;100.00
8286;BME280;4181;43.416;24.598;2023-01-15T11:36:32;100443.47;;;12.83;100.00
8286;BME280;4181;43.416;24.598;2023-01-15T11:38:57;100444.00;;;12.58;100.00
8286;BME280;4181;43.416;24.598;2023-01-15T11:41:31;100432.75;;;12.33;100.00
8286;BME280;4181;43.416;24.598;2023-01-15T11:44:17;100431.97;;;12.11;100.00
8286;BME280;4181;43.416;24.598;2023-01-15T11:47:02;100432.53;;;12.13;100.00
8286;BME280;4181;43.416;24.598;2023-01-15T11:49:53;100421.59;;;12.13;100.00
8286;BME280;4181;43.416;24.598;2023-01-15T11:52:41;100424.44;;;12.02;100.00
8286;BME280;4181;43.416;24.598;2023-01-15T11:55:14;100408.72;;;12.14;100.00
8286;BME280;4181;43.416;24.598;2023-01-15T11:57:40;100396.00;;;12.24;100.00
8286;BME280;4181;43.416;24.598;2023-01-15T12:00:13;100389.72;;;12.77;100.00
8286;BME280;4181;43.416;24.598;2023-01-15T12:02:44;100375.81;;;13.10;100.00
8286;BME280;4181;43.416;24.598;2023-01-15T12:05:23;100365.09;;;13.45;100.00
8286;BME280;4181;43.416;24.598;2023-01-15T12:07:54;100361.16;;;13.73;100.00
8286;BME280;4181;43.416;24.598;2023-01-15T12:10:39;100372.63;;;13.60;100.00
8286;BME280;4181;43.416;24.598;2023-01-15T12:27:26;100378.19;;;12.70;100.00
8286;BME280;4181;43.416;24.598;2023-01-15T12:32:45;100388.53;;;12.15;100.00
8286;BME280;4181;43.416;24.598;2023-01-15T12:35:25;100384.13;;;12.14;100.00
8286;BME280;4181;43.416;24.598;2023-01-15T12:37:57;100386.16;;;12.02;100.00
8286;BME280;4181;43.416;24.598;2023-01-15T12:40:37;100362.28;;;12.19;100.00
8286;BME280;4181;43.416;24.598;2023-01-15T12:43:13;100367.19;;;12.17;100.00
8286;BME280;4181;43.416;24.598;2023-01-15T12:45:59;100374.78;;;11.88;100.00
8286;BME280;4181;43.416;24.598;2023-01-15T12:51:00;100369.94;;;11.95;100.00
8286;BME280;4181;43.416;24.598;2023-01-15T12:53:35;100361.13;;;11.88;100.00
8286;BME280;4181;43.416;24.598;2023-01-15T12:56:41;100356.19;;;11.90;100.00
8286;BME280;4181;43.416;24.598;2023-01-15T12:59:13;100352.41;;;11.91;100.00
8286;BME280;4181;43.416;24.598;2023-01-15T13:02:28;100353.31;;;12.02;100.00
8286;BME280;4181;43.416;24.598;2023-01-15T13:10:25;100333.41;;;11.80;100.00
8286;BME280;4181;43.416;24.598;2023-01-15T13:12:59;100333.31;;;11.75;100.00
8286;BME280;4181;43.416;24.598;2023-01-15T13:15:32;100325.88;;;11.92;100.00
8286;BME280;4181;43.416;24.598;2023-01-15T13:18:17;100325.38;;;11.95;100.00
8286;BME280;4181;43.416;24.598;2023-01-15T13:20:47;100321.28;;;11.97;100.00
8286;BME280;4181;43.416;24.598;2023-01-15T13:28:36;100310.22;;;12.09;100.00
8286;BME280;4181;43.416;24.598;2023-01-15T13:33:50;100297.09;;;12.11;100.00
8286;BME280;4181;43.416;24.598;2023-01-15T13:36:31;100302.06;;;12.14;100.00
8286;BME280;4181;43.416;24.598;2023-01-15T13:39:00;100306.84;;;12.02;100.00
8286;BME280;4181;43.416;24.598;2023-01-15T13:41:29;100318.81;;;11.74;100.00
8286;BME280;4181;43.416;24.598;2023-01-15T13:44:19;100317.16;;;11.52;100.00
8286;BME280;4181;43.416;24.598;2023-01-15T13:47:03;100327.38;;;11.23;100.00
8286;BME280;4181;43.416;24.598;2023-01-15T13:49:35;100312.78;;;11.34;100.00
8286;BME280;4181;43.416;24.598;2023-01-15T13:52:03;100312.56;;;11.19;100.00
8286;BME280;4181;43.416;24.598;2023-01-15T13:54:32;100319.16;;;11.01;100.00
8286;BME280;4181;43.416;24.598;2023-01-15T13:57:19;100314.91;;;10.94;100.00
8286;BME280;4181;43.416;24.598;2023-01-15T13:59:46;100312.53;;;10.81;100.00
8286;BME280;4181;43.416;24.598;2023-01-15T14:02:24;100305.72;;;10.83;100.00
8286;BME280;4181;43.416;24.598;2023-01-15T14:04:53;100299.88;;;10.75;100.00
8286;BME280;4181;43.416;24.598;2023-01-15T14:07:29;100299.63;;;10.76;100.00
8286;BME280;4181;43.416;24.598;2023-01-15T14:09:54;100295.16;;;10.70;100.00
8286;BME280;4181;43.416;24.598;2023-01-15T14:37:04;100293.00;;;10.56;100.00
8286;BME280;4181;43.416;24.598;2023-01-15T14:39:48;100292.00;;;10.62;100.00
8286;BME280;4181;43.416;24.598;2023-01-15T14:47:47;100273.47;;;10.80;100.00
8286;BME280;4181;43.416;24.598;2023-01-15T14:50:38;100272.09;;;10.78;100.00
8286;BME280;4181;43.416;24.598;2023-01-15T14:56:09;100274.75;;;10.56;100.00
8286;BME280;4181;43.416;24.598;2023-01-15T15:03:57;100268.19;;;10.57;100.00
8286;BME280;4181;43.416;24.598;2023-01-15T15:06:25;100262.75;;;10.57;100.00
8286;BME280;4181;43.416;24.598;2023-01-15T15:08:58;100272.81;;;10.40;100.00
8286;BME280;4181;43.416;24.598;2023-01-15T15:11:37;100257.38;;;10.29;100.00
8286;BME280;4181;43.416;24.598;2023-01-15T15:14:25;100259.22;;;10.12;100.00
8286;BME280;4181;43.416;24.598;2023-01-15T15:16:57;100254.22;;;9.92;100.00
8286;BME280;4181;43.416;24.598;2023-01-15T15:19:46;100244.16;;;9.93;100.00
8286;BME280;4181;43.416;24.598;2023-01-15T15:22:16;100247.34;;;9.90;100.00
8286;BME280;4181;43.416;24.598;2023-01-15T15:24:46;100247.44;;;9.95;100.00